Time;durP1;ratioP1;P1;durP2;ratioP2;P2;SDS_P1;SDS_P2;PMS_P1;PMS_P2;Temp;Humidity;BMP_temperature;BMP_pressure;BME280_temperature;BME280_humidity;BME280_pressure;Samples;Min_cycle;Max_cycle;Signal;HPM_P1;HPM_P2
2023/08/11 00:02:01;;;;;;;13.55;10.85;;;16.80;99.90;;;;;;4990795;28;20054;-66
2023/08/11 00:04:27;;;;;;;14.80;12.23;;;16.80;99.90;;;;;;4990265;28;20120;-66
2023/08/11 00:06:54;;;;;;;13.30;11.32;;;16.90;99.90;;;;;;4991278;28;20141;-65
2023/08/11 00:09:21;;;;;;;14.35;12.77;;;16.90;99.90;;;;;;4974017;28;20458;-65
2023/08/11 00:11:48;;;;;;;15.25;12.02;;;16.80;99.90;;;;;;4973955;28;20422;-65
2023/08/11 00:14:16;;;;;;;14.35;11.98;;;16.80;99.90;;;;;;4990436;28;20057;-64
2023/08/11 00:16:42;;;;;;;14.85;12.48;;;16.90;99.90;;;;;;4991113;28;20053;-66
2023/08/11 00:19:12;;;;;;;13.50;11.90;;;16.80;99.90;;;;;;4991212;28;20050;-65
2023/08/11 00:21:40;;;;;;;14.55;12.85;;;16.80;99.90;;;;;;4974630;28;20054;-65
2023/08/11 00:24:07;;;;;;;13.77;12.10;;;16.80;99.90;;;;;;4989977;28;20065;-64
2023/08/11 00:26:34;;;;;;;14.32;12.77;;;16.80;99.90;;;;;;4954331;28;20373;-65
2023/08/11 00:29:01;;;;;;;14.27;12.77;;;16.90;99.90;;;;;;4970625;28;20073;-64
2023/08/11 00:31:28;;;;;;;17.92;13.60;;;16.80;99.90;;;;;;4970884;28;20129;-66
2023/08/11 00:33:55;;;;;;;15.65;12.82;;;16.80;99.90;;;;;;4970805;28;20069;-65
2023/08/11 00:36:22;;;;;;;15.52;13.48;;;16.80;99.90;;;;;;4986750;28;20054;-65
2023/08/11 00:38:49;;;;;;;15.05;13.55;;;16.80;99.90;;;;;;4957533;28;20160;-65
2023/08/11 00:41:16;;;;;;;15.55;13.60;;;16.70;99.90;;;;;;4973939;28;20046;-65
2023/08/11 00:43:43;;;;;;;16.60;13.30;;;16.80;99.90;;;;;;4973198;28;20108;-65
2023/08/11 00:46:15;;;;;;;15.85;13.93;;;16.70;99.90;;;;;;4990497;28;20057;-65
2023/08/11 00:48:43;;;;;;;15.20;13.70;;;16.70;99.90;;;;;;4973887;28;20133;-65
2023/08/11 00:51:13;;;;;;;15.55;13.98;;;16.70;99.90;;;;;;4990830;28;20047;-66
2023/08/11 00:53:41;;;;;;;15.68;13.75;;;16.60;99.90;;;;;;4990331;28;20121;-64
2023/08/11 00:56:09;;;;;;;16.02;14.25;;;16.70;99.90;;;;;;4973601;28;20112;-66
2023/08/11 00:58:37;;;;;;;15.27;13.65;;;16.60;99.90;;;;;;4990805;28;20042;-66
2023/08/11 01:01:04;;;;;;;14.52;13.07;;;16.60;99.90;;;;;;4973874;28;20459;-64
2023/08/11 01:03:31;;;;;;;14.85;13.35;;;16.60;99.90;;;;;;4990159;28;20046;-64
2023/08/11 01:06:35;;;;;;;17.13;13.73;;;16.60;99.90;;;;;;4956726;28;20054;-66
2023/08/11 01:09:22;;;;;;;15.68;13.65;;;16.60;99.90;;;;;;4990493;28;20054;-66
2023/08/11 01:12:08;;;;;;;16.77;14.20;;;16.50;99.90;;;;;;4990521;28;20116;-65
2023/08/11 01:15:03;;;;;;;16.30;13.63;;;16.60;99.90;;;;;;4956931;28;20057;-66
2023/08/11 01:17:30;;;;;;;15.80;14.02;;;16.60;99.90;;;;;;4973466;28;20046;-65
2023/08/11 01:19:57;;;;;;;16.55;14.80;;;16.60;99.90;;;;;;4990368;28;20046;-66
2023/08/11 01:22:28;;;;;;;15.38;13.88;;;16.50;99.90;;;;;;4958301;28;20042;-65
2023/08/11 01:24:56;;;;;;;17.75;14.57;;;16.50;99.90;;;;;;4991801;28;20065;-65
2023/08/11 01:27:23;;;;;;;16.63;14.38;;;16.50;99.90;;;;;;4976772;28;20058;-66
2023/08/11 01:29:51;;;;;;;15.60;13.60;;;16.40;99.90;;;;;;4976889;28;20354;-65
2023/08/11 01:32:18;;;;;;;14.80;13.30;;;16.40;99.90;;;;;;4961401;28;20085;-66
2023/08/11 01:34:44;;;;;;;15.50;13.93;;;16.50;99.90;;;;;;4993612;28;20112;-65
2023/08/11 01:37:12;;;;;;;15.68;13.95;;;16.40;99.90;;;;;;4993921;28;20056;-65
2023/08/11 01:39:43;;;;;;;17.23;14.15;;;16.40;99.90;;;;;;4976756;28;20466;-65
2023/08/11 01:42:27;;;;;;;15.25;13.70;;;16.40;99.90;;;;;;4965726;28;20554;-65
2023/08/11 01:44:54;;;;;;;15.90;13.75;;;16.40;99.90;;;;;;4991184;28;20128;-66
2023/08/11 01:47:24;;;;;;;15.13;13.50;;;16.40;99.90;;;;;;4980147;28;20441;-66
2023/08/11 01:49:51;;;;;;;14.48;12.98;;;16.30;99.90;;;;;;4979459;28;20398;-66
2023/08/11 01:52:22;;;;;;;15.20;13.68;;;16.30;99.90;;;;;;4996322;28;20042;-66
2023/08/11 01:54:49;;;;;;;16.15;12.88;;;16.40;99.90;;;;;;4995591;28;20473;-64
2023/08/11 01:57:17;;;;;;;15.32;13.65;;;16.30;99.90;;;;;;4979841;28;20109;-65
2023/08/11 01:59:45;;;;;;;13.95;12.35;;;16.30;99.90;;;;;;4995868;28;20047;-66
2023/08/11 02:02:12;;;;;;;16.45;13.18;;;16.30;99.90;;;;;;5012827;28;20493;-65
2023/08/11 02:04:39;;;;;;;16.13;12.43;;;16.40;99.90;;;;;;4979171;28;20145;-65
2023/08/11 02:07:08;;;;;;;14.18;12.68;;;16.30;99.90;;;;;;4995966;28;20049;-65
2023/08/11 02:09:34;;;;;;;14.60;12.60;;;16.30;99.90;;;;;;4979799;28;20060;-65
2023/08/11 02:12:01;;;;;;;14.48;12.27;;;16.30;99.90;;;;;;4995997;28;20157;-65
2023/08/11 02:14:29;;;;;;;15.05;12.40;;;16.30;99.90;;;;;;5012715;28;20042;-65
2023/08/11 02:16:56;;;;;;;13.73;12.30;;;16.30;99.90;;;;;;4992531;28;20042;-65
2023/08/11 02:19:22;;;;;;;15.18;12.32;;;16.30;99.90;;;;;;4975713;28;20060;-65
2023/08/11 02:21:50;;;;;;;13.60;11.88;;;16.20;99.90;;;;;;4975681;28;20082;-65
2023/08/11 02:24:18;;;;;;;14.00;12.52;;;16.20;99.90;;;;;;4992288;28;20062;-65
2023/08/11 02:26:45;;;;;;;14.13;11.73;;;16.30;99.90;;;;;;4978006;28;20076;-65
2023/08/11 02:29:13;;;;;;;13.57;11.55;;;16.20;99.90;;;;;;4995422;28;20061;-65
2023/08/11 02:31:41;;;;;;;12.75;11.40;;;16.20;99.90;;;;;;4979327;28;20104;-65
2023/08/11 02:34:09;;;;;;;13.85;12.05;;;16.20;99.90;;;;;;4995301;28;20112;-65
2023/08/11 02:36:36;;;;;;;12.57;11.32;;;16.20;99.90;;;;;;4994313;28;20429;-64
2023/08/11 02:39:08;;;;;;;13.15;11.15;;;16.20;99.90;;;;;;4979408;28;20050;-64
2023/08/11 02:41:35;;;;;;;12.20;11.00;;;16.10;99.90;;;;;;4995753;28;20057;-65
2023/08/11 02:44:04;;;;;;;11.98;10.77;;;16.20;99.90;;;;;;4986702;28;20058;-63
2023/08/11 02:46:32;;;;;;;12.00;10.77;;;16.10;99.90;;;;;;4975810;28;20050;-63
2023/08/11 02:48:58;;;;;;;13.55;10.98;;;16.10;99.90;;;;;;4991961;28;20494;-65
2023/08/11 02:51:25;;;;;;;13.80;10.48;;;16.20;99.90;;;;;;4991615;28;20451;-65
2023/08/11 02:53:53;;;;;;;12.30;10.13;;;16.20;99.90;;;;;;4966596;28;20054;-65
2023/08/11 02:56:21;;;;;;;12.02;10.38;;;16.20;99.90;;;;;;4995038;28;20060;-66
2023/08/11 02:58:49;;;;;;;11.57;10.30;;;16.10;99.90;;;;;;5011564;28;20050;-64
2023/08/11 03:01:16;;;;;;;11.77;10.57;;;16.10;99.90;;;;;;4979513;28;20271;-65
2023/08/11 03:03:42;;;;;;;13.50;10.43;;;16.10;99.90;;;;;;5011839;28;20050;-65
2023/08/11 03:06:10;;;;;;;11.93;10.05;;;16.10;99.90;;;;;;5011548;28;20060;-66
2023/08/11 03:08:39;;;;;;;13.10;9.85;;;16.00;99.90;;;;;;4979062;28;20049;-65
2023/08/11 03:11:06;;;;;;;12.30;10.52;;;16.00;99.90;;;;;;5011465;28;20335;-66
2023/08/11 03:13:35;;;;;;;11.43;10.13;;;16.10;99.90;;;;;;5011562;28;20042;-65
2023/08/11 03:16:02;;;;;;;12.95;10.85;;;16.10;99.90;;;;;;4994154;28;20125;-65
2023/08/11 03:18:30;;;;;;;11.15;10.02;;;16.10;99.90;;;;;;5012057;28;20041;-66
2023/08/11 03:20:57;;;;;;;11.38;10.20;;;16.00;99.90;;;;;;4994493;28;20094;-65
2023/08/11 03:23:25;;;;;;;12.77;10.52;;;16.00;99.90;;;;;;5011518;28;20108;-65
2023/08/11 03:25:52;;;;;;;14.10;10.20;;;16.00;99.90;;;;;;4974930;28;20113;-64
2023/08/11 03:28:19;;;;;;;11.93;9.70;;;15.90;99.90;;;;;;4991187;28;20105;-65
2023/08/11 03:30:47;;;;;;;14.10;10.43;;;15.90;99.90;;;;;;5006981;28;20129;-64
2023/08/11 03:33:15;;;;;;;11.63;10.00;;;16.00;99.90;;;;;;4990621;28;20046;-64
2023/08/11 03:35:44;;;;;;;12.57;11.10;;;15.90;99.90;;;;;;4977710;28;20121;-66
2023/08/11 03:38:10;;;;;;;12.13;10.40;;;15.90;99.90;;;;;;5011732;28;20449;-65
2023/08/11 03:40:37;;;;;;;11.60;10.02;;;15.90;99.90;;;;;;4978101;28;20464;-64
2023/08/11 03:43:05;;;;;;;14.77;10.88;;;15.80;99.90;;;;;;5010990;28;20049;-65
2023/08/11 03:45:31;;;;;;;12.10;10.90;;;15.80;99.90;;;;;;4974783;28;20054;-65
2023/08/11 03:47:57;;;;;;;12.80;10.90;;;15.80;99.90;;;;;;4991647;28;20116;-65
2023/08/11 03:50:25;;;;;;;12.00;10.73;;;15.80;99.90;;;;;;4990743;28;20057;-66
2023/08/11 03:52:51;;;;;;;11.85;10.65;;;15.80;99.90;;;;;;4991475;28;20050;-65
2023/08/11 03:55:19;;;;;;;12.57;10.68;;;15.70;99.90;;;;;;4998501;28;20065;-65
2023/08/11 03:57:49;;;;;;;11.88;10.57;;;15.70;99.90;;;;;;4962258;28;20050;-66
2023/08/11 04:00:16;;;;;;;12.77;10.77;;;15.70;99.90;;;;;;4977755;28;20393;-65
2023/08/11 04:02:44;;;;;;;12.70;10.85;;;15.60;99.90;;;;;;4977955;28;20057;-63
2023/08/11 04:05:11;;;;;;;13.52;10.90;;;15.70;99.90;;;;;;5010932;28;20054;-65
2023/08/11 04:07:38;;;;;;;13.40;11.05;;;15.70;99.90;;;;;;5011294;28;20064;-64
2023/08/11 04:10:05;;;;;;;13.48;11.23;;;15.60;99.90;;;;;;4994016;28;20054;-65
2023/08/11 04:12:32;;;;;;;12.73;10.30;;;15.60;99.90;;;;;;5011348;28;20053;-66
2023/08/11 04:15:15;;;;;;;11.63;10.35;;;15.60;99.90;;;;;;5010842;28;20117;-66
2023/08/11 04:17:49;;;;;;;11.75;10.52;;;15.60;99.90;;;;;;4981021;28;20104;-66
2023/08/11 04:20:18;;;;;;;13.50;10.90;;;15.60;99.90;;;;;;5011070;28;20117;-66
2023/08/11 04:22:47;;;;;;;12.13;10.90;;;15.60;99.90;;;;;;5010860;28;20054;-65
2023/08/11 04:25:16;;;;;;;13.73;11.20;;;15.60;99.90;;;;;;4993584;28;20060;-66
2023/08/11 04:27:43;;;;;;;13.77;11.27;;;15.60;99.90;;;;;;4993791;28;20064;-63
2023/08/11 04:30:13;;;;;;;12.65;11.35;;;15.60;99.90;;;;;;4977695;28;20073;-65
2023/08/11 04:32:41;;;;;;;14.43;11.23;;;15.50;99.90;;;;;;4993172;28;20077;-63
2023/08/11 04:35:09;;;;;;;13.10;11.73;;;15.60;99.90;;;;;;5010386;28;20129;-64
2023/08/11 04:37:36;;;;;;;13.27;10.70;;;15.60;99.90;;;;;;4961350;28;20046;-65
2023/08/11 04:40:07;;;;;;;15.15;10.80;;;15.70;99.90;;;;;;5009442;28;20332;-63
2023/08/11 04:42:35;;;;;;;13.55;11.05;;;15.70;99.90;;;;;;5010828;28;20367;-65
2023/08/11 04:45:05;;;;;;;14.43;11.30;;;15.70;99.90;;;;;;5009529;28;20500;-65
2023/08/11 04:47:32;;;;;;;14.18;11.35;;;15.70;99.90;;;;;;4993261;28;20046;-64
2023/08/11 04:50:00;;;;;;;11.95;10.73;;;15.90;99.90;;;;;;4993206;28;20081;-65
2023/08/11 04:52:27;;;;;;;13.85;10.98;;;16.20;99.90;;;;;;4993418;28;20053;-65
2023/08/11 04:54:54;;;;;;;11.90;10.02;;;16.40;99.90;;;;;;5010232;28;20107;-64
2023/08/11 04:57:21;;;;;;;12.32;10.48;;;16.70;99.90;;;;;;4993457;28;20172;-65
2023/08/11 04:59:48;;;;;;;14.25;10.70;;;16.90;99.90;;;;;;4997049;28;20108;-64
2023/08/11 05:02:18;;;;;;;12.80;10.60;;;17.30;99.90;;;;;;5014475;28;20050;-63
2023/08/11 05:04:45;;;;;;;11.52;10.07;;;17.70;99.90;;;;;;4981362;28;20502;-65
2023/08/11 05:07:11;;;;;;;11.63;10.32;;;18.00;99.90;;;;;;5019177;28;20067;-66
2023/08/11 05:09:39;;;;;;;11.45;10.27;;;18.30;99.90;;;;;;5032858;28;20435;-65
2023/08/11 05:12:06;;;;;;;12.80;10.18;;;18.70;99.90;;;;;;4996340;28;20168;-65
2023/08/11 05:14:32;;;;;;;10.70;9.63;;;19.00;99.90;;;;;;5032636;28;20092;-64
2023/08/11 05:16:58;;;;;;;10.80;9.75;;;19.10;99.90;;;;;;5029820;28;20053;-66
2023/08/11 05:19:26;;;;;;;11.95;8.63;;;19.20;99.90;;;;;;5014425;28;20038;-65
2023/08/11 05:21:54;;;;;;;11.15;9.95;;;19.40;99.90;;;;;;4997521;28;20089;-66
2023/08/11 05:24:21;;;;;;;11.00;9.75;;;19.60;99.90;;;;;;5033499;28;20045;-66
2023/08/11 05:26:52;;;;;;;9.90;8.90;;;19.60;99.90;;;;;;4999970;28;20060;-65
2023/08/11 05:29:20;;;;;;;10.07;8.98;;;19.50;99.90;;;;;;4997144;28;20050;-65
2023/08/11 05:31:46;;;;;;;12.23;8.80;;;19.60;99.90;;;;;;4991893;28;20049;-66
2023/08/11 05:34:13;;;;;;;10.18;9.10;;;19.50;99.90;;;;;;4999402;28;20421;-65
2023/08/11 05:36:39;;;;;;;11.50;9.05;;;19.50;99.90;;;;;;5016308;28;20365;-65
2023/08/11 05:39:08;;;;;;;10.65;8.60;;;19.40;99.90;;;;;;5013719;28;20046;-65
2023/08/11 05:41:36;;;;;;;10.82;8.65;;;19.70;99.90;;;;;;4997355;28;20050;-65
2023/08/11 05:44:04;;;;;;;9.57;8.57;;;20.00;99.90;;;;;;5011025;28;20076;-64
2023/08/11 05:46:32;;;;;;;10.18;8.20;;;20.40;99.90;;;;;;5012069;28;20446;-66
2023/08/11 05:48:58;;;;;;;9.23;8.27;;;20.70;99.90;;;;;;4980444;28;20050;-66
2023/08/11 05:51:24;;;;;;;9.63;8.43;;;21.00;99.90;;;;;;4995949;28;20374;-66
2023/08/11 05:53:52;;;;;;;9.30;8.40;;;21.20;99.90;;;;;;5012938;28;20050;-66
2023/08/11 05:56:19;;;;;;;9.13;8.00;;;21.60;99.90;;;;;;4979734;28;20144;-66
2023/08/11 05:58:46;;;;;;;9.35;8.38;;;21.70;99.90;;;;;;4992451;28;20041;-65
2023/08/11 06:01:22;;;;;;;10.02;8.10;;;21.80;99.90;;;;;;5013182;28;20042;-66
2023/08/11 06:04:03;;;;;;;15.18;8.32;;;22.10;99.90;;;;;;4995890;28;20038;-65
2023/08/11 06:06:31;;;;;;;9.40;7.80;;;22.30;99.90;;;;;;4994539;28;20053;-65
2023/08/11 06:08:57;;;;;;;8.80;7.88;;;22.70;99.90;;;;;;5008381;28;20064;-66
2023/08/11 06:11:23;;;;;;;8.60;7.50;;;22.70;99.90;;;;;;5009898;28;20379;-64
2023/08/11 06:13:50;;;;;;;9.02;7.97;;;23.00;99.90;;;;;;5011825;28;20053;-65
2023/08/11 06:16:16;;;;;;;9.68;8.02;;;23.20;99.90;;;;;;5024424;28;20041;-66
2023/08/11 06:18:43;;;;;;;10.65;7.90;;;23.30;99.90;;;;;;5011946;28;20068;-66
2023/08/11 06:21:09;;;;;;;9.45;8.18;;;23.50;99.90;;;;;;5012838;28;20050;-67
2023/08/11 06:23:35;;;;;;;8.88;7.97;;;23.60;99.90;;;;;;4995906;28;20050;-65
2023/08/11 06:26:02;;;;;;;10.77;7.60;;;23.80;99.90;;;;;;5012571;28;20050;-64
2023/08/11 06:28:29;;;;;;;8.50;7.65;;;24.00;99.90;;;;;;5013375;28;20126;-65
2023/08/11 06:30:55;;;;;;;9.48;7.75;;;24.20;99.90;;;;;;4994918;28;20455;-64
2023/08/11 06:33:22;;;;;;;8.93;7.60;;;24.40;99.90;;;;;;5012692;28;20365;-64
2023/08/11 06:35:48;;;;;;;9.25;7.47;;;24.40;99.90;;;;;;5011851;28;20041;-63
2023/08/11 06:38:14;;;;;;;8.60;7.15;;;24.40;99.90;;;;;;5011835;28;20052;-65
2023/08/11 06:40:41;;;;;;;8.25;7.18;;;24.70;99.90;;;;;;5011905;28;20104;-65
2023/08/11 06:43:07;;;;;;;8.93;6.65;;;24.90;99.90;;;;;;5012107;28;20490;-64
2023/08/11 06:45:33;;;;;;;11.88;7.60;;;25.50;99.90;;;;;;5011966;28;20046;-65
2023/08/11 06:48:00;;;;;;;10.18;6.85;;;25.60;99.90;;;;;;5010034;28;20054;-64
2023/08/11 06:50:27;;;;;;;8.85;6.90;;;25.50;99.90;;;;;;5011397;28;20348;-66
2023/08/11 06:53:01;;;;;;;8.10;6.47;;;25.60;99.90;;;;;;5012875;28;20092;-67
2023/08/11 06:55:28;;;;;;;8.10;6.43;;;25.70;99.90;;;;;;4979572;28;20050;-66
2023/08/11 06:57:56;;;;;;;8.90;6.30;;;25.70;99.90;;;;;;5011506;28;20100;-67
2023/08/11 07:00:23;;;;;;;10.02;6.70;;;25.70;99.90;;;;;;5011540;28;20579;-67
2023/08/11 07:02:50;;;;;;;8.15;6.40;;;26.10;99.90;;;;;;4995673;28;20116;-67
2023/08/11 07:05:17;;;;;;;7.82;7.00;;;26.10;99.90;;;;;;4995283;28;20164;-66
2023/08/11 07:07:45;;;;;;;9.30;5.80;;;26.30;99.90;;;;;;5011911;28;20394;-67
2023/08/11 07:10:12;;;;;;;8.75;7.05;;;26.50;99.90;;;;;;4994871;28;20046;-67
2023/08/11 07:12:38;;;;;;;8.20;6.80;;;26.40;99.90;;;;;;5011654;28;20042;-66
2023/08/11 07:15:07;;;;;;;8.20;6.57;;;26.10;99.90;;;;;;4994899;28;20462;-66
2023/08/11 07:17:34;;;;;;;7.88;6.90;;;26.10;99.90;;;;;;4995728;28;20105;-67
2023/08/11 07:20:01;;;;;;;9.63;6.75;;;25.90;99.90;;;;;;4994596;28;20067;-67
2023/08/11 07:22:28;;;;;;;8.55;6.53;;;26.00;99.90;;;;;;5011341;28;20050;-64
2023/08/11 07:24:55;;;;;;;7.70;6.35;;;26.20;99.90;;;;;;5011101;28;20108;-67
2023/08/11 07:27:22;;;;;;;7.30;5.90;;;26.30;99.90;;;;;;5010540;28;20371;-64
2023/08/11 07:29:49;;;;;;;8.60;7.07;;;26.20;99.90;;;;;;4994501;28;20061;-65
2023/08/11 07:32:16;;;;;;;6.82;5.95;;;26.10;99.90;;;;;;4995288;28;20046;-64
2023/08/11 07:34:43;;;;;;;10.07;6.72;;;26.10;99.90;;;;;;4995112;28;20070;-65
2023/08/11 07:37:10;;;;;;;10.75;6.30;;;26.00;99.90;;;;;;5011084;28;20451;-65
2023/08/11 07:39:52;;;;;;;9.20;6.90;;;25.60;99.90;;;;;;4995529;28;20124;-64
2023/08/11 07:42:18;;;;;;;7.90;6.72;;;25.40;99.90;;;;;;4978955;28;20057;-63
2023/08/11 07:44:44;;;;;;;8.98;6.15;;;25.30;99.90;;;;;;5011722;28;20050;-63
2023/08/11 07:47:10;;;;;;;7.32;6.15;;;25.20;99.90;;;;;;4992654;28;20395;-64
2023/08/11 07:49:37;;;;;;;7.53;6.72;;;25.10;99.90;;;;;;4991686;28;20393;-64
2023/08/11 07:52:04;;;;;;;10.07;6.13;;;24.90;99.90;;;;;;4992295;28;20468;-65
2023/08/11 07:54:31;;;;;;;9.30;6.13;;;24.80;99.90;;;;;;5007439;28;20058;-66
2023/08/11 07:56:59;;;;;;;7.55;5.93;;;24.90;99.90;;;;;;4993269;28;20069;-66
2023/08/11 07:59:25;;;;;;;7.18;5.38;;;25.00;99.90;;;;;;5010246;28;20116;-65
2023/08/11 08:01:53;;;;;;;6.85;5.90;;;25.10;99.90;;;;;;4994349;28;20054;-65
2023/08/11 08:04:21;;;;;;;7.72;5.93;;;25.10;99.90;;;;;;4994407;28;20063;-66
2023/08/11 08:06:48;;;;;;;7.10;5.45;;;25.20;99.90;;;;;;5010718;28;20046;-66
2023/08/11 08:09:15;;;;;;;6.60;5.00;;;25.20;99.90;;;;;;4993831;28;20053;-63
2023/08/11 08:11:43;;;;;;;7.38;5.70;;;25.20;99.90;;;;;;5010522;28;20446;-65
2023/08/11 08:14:14;;;;;;;8.52;5.30;;;25.10;99.90;;;;;;4977938;28;20406;-66
2023/08/11 08:16:56;;;;;;;7.75;5.68;;;25.20;99.90;;;;;;4992422;28;20430;-64
2023/08/11 08:19:24;;;;;;;8.02;5.80;;;25.20;99.90;;;;;;5009878;28;20085;-64
2023/08/11 08:21:50;;;;;;;8.82;5.50;;;25.20;99.90;;;;;;4961592;28;20092;-66
2023/08/11 08:24:17;;;;;;;8.63;5.90;;;25.40;99.90;;;;;;5010549;28;20371;-66
2023/08/11 08:26:47;;;;;;;7.70;5.65;;;25.20;99.90;;;;;;4991767;28;20108;-64
2023/08/11 08:29:14;;;;;;;9.27;5.60;;;25.40;99.90;;;;;;4978564;28;20378;-66
2023/08/11 08:31:42;;;;;;;8.00;5.40;;;25.40;99.90;;;;;;4993452;28;20108;-65
2023/08/11 08:34:09;;;;;;;7.35;4.93;;;25.40;99.90;;;;;;4977361;28;20053;-66
2023/08/11 08:36:36;;;;;;;6.93;4.85;;;25.50;99.90;;;;;;4993822;28;20045;-64
2023/08/11 08:39:04;;;;;;;10.48;5.35;;;25.60;99.90;;;;;;4994412;28;20046;-65
2023/08/11 08:41:32;;;;;;;8.15;5.38;;;25.60;99.90;;;;;;4994677;28;20459;-65
2023/08/11 08:44:01;;;;;;;10.07;5.30;;;25.70;99.90;;;;;;4994271;28;20062;-66
2023/08/11 08:46:29;;;;;;;7.93;5.10;;;25.70;99.90;;;;;;4993983;28;20050;-66
2023/08/11 08:49:24;;;;;;;6.70;5.03;;;25.80;99.90;;;;;;5010299;28;20054;-63
2023/08/11 08:51:52;;;;;;;9.10;5.43;;;26.00;99.90;;;;;;5010983;28;20441;-66
2023/08/11 08:54:20;;;;;;;8.85;5.03;;;25.90;99.90;;;;;;5010457;28;20046;-66
2023/08/11 08:56:48;;;;;;;6.30;5.18;;;26.00;99.90;;;;;;5010171;28;20068;-64
2023/08/11 08:59:16;;;;;;;7.22;5.28;;;25.90;99.90;;;;;;4993351;28;20423;-63
2023/08/11 09:01:43;;;;;;;11.23;5.55;;;25.80;99.90;;;;;;5010184;28;20426;-66
2023/08/11 09:04:10;;;;;;;7.28;5.25;;;25.90;99.90;;;;;;5010768;28;20331;-64
2023/08/11 09:06:38;;;;;;;7.68;5.10;;;26.10;99.90;;;;;;5010747;28;20050;-64
2023/08/11 09:09:07;;;;;;;7.63;5.60;;;26.20;99.90;;;;;;4993084;28;20398;-66
2023/08/11 09:11:34;;;;;;;7.82;5.18;;;26.10;99.90;;;;;;4993698;28;20056;-64
2023/08/11 09:14:07;;;;;;;7.88;5.22;;;26.00;99.90;;;;;;4993800;28;20449;-63
2023/08/11 09:16:34;;;;;;;7.43;5.53;;;26.00;99.90;;;;;;5009569;28;20465;-65
2023/08/11 09:19:02;;;;;;;6.40;4.72;;;26.10;99.90;;;;;;5010414;28;20072;-66
2023/08/11 09:21:30;;;;;;;7.00;4.82;;;26.10;99.90;;;;;;5010610;28;20056;-66
2023/08/11 09:23:58;;;;;;;6.85;4.80;;;26.20;99.90;;;;;;4961835;28;20474;-66
2023/08/11 09:26:26;;;;;;;7.53;5.22;;;26.10;99.90;;;;;;4955506;28;20141;-65
2023/08/11 09:28:54;;;;;;;9.40;4.65;;;26.20;99.90;;;;;;5005526;28;20057;-64
2023/08/11 09:31:22;;;;;;;7.60;4.90;;;26.30;99.90;;;;;;5007867;28;20046;-66
2023/08/11 09:33:50;;;;;;;7.63;4.82;;;26.40;99.90;;;;;;4992191;28;20179;-66
2023/08/11 09:36:17;;;;;;;6.40;4.80;;;26.40;99.90;;;;;;4989118;28;20635;-65
2023/08/11 09:38:48;;;;;;;7.18;5.13;;;26.30;99.90;;;;;;4976692;28;20046;-66
2023/08/11 09:41:17;;;;;;;7.60;4.88;;;26.30;99.90;;;;;;4960968;28;20427;-66
2023/08/11 09:43:49;;;;;;;6.72;4.68;;;26.50;99.90;;;;;;4983732;28;20068;-66
2023/08/11 09:46:18;;;;;;;7.43;4.53;;;26.60;99.90;;;;;;5012988;28;20453;-65
2023/08/11 09:48:44;;;;;;;6.25;4.45;;;26.70;99.90;;;;;;4980455;28;20463;-65
2023/08/11 09:51:11;;;;;;;5.97;4.57;;;26.80;99.90;;;;;;5013912;28;20045;-65
2023/08/11 09:53:40;;;;;;;9.55;5.30;;;26.80;99.90;;;;;;5013617;28;20049;-66
2023/08/11 09:56:10;;;;;;;8.43;4.50;;;26.80;99.90;;;;;;5013944;28;20062;-64
2023/08/11 09:58:39;;;;;;;6.65;4.65;;;26.90;99.90;;;;;;4996763;28;20050;-62
2023/08/11 10:01:10;;;;;;;4.90;4.28;;;26.90;99.90;;;;;;4996971;28;20354;-64
2023/08/11 10:03:42;;;;;;;6.55;4.60;;;27.00;99.90;;;;;;4996800;28;20442;-65
2023/08/11 10:06:12;;;;;;;6.78;4.30;;;27.10;99.90;;;;;;4996269;28;20054;-65
2023/08/11 10:08:40;;;;;;;6.10;3.28;;;27.10;99.90;;;;;;4996480;28;20065;-66
2023/08/11 10:11:14;;;;;;;4.85;3.30;;;27.30;99.90;;;;;;4996640;28;20053;-65
2023/08/11 10:13:42;;;;;;;9.05;3.58;;;27.40;99.90;;;;;;4996300;28;20054;-65
2023/08/11 10:16:15;;;;;;;5.90;3.60;;;27.50;99.90;;;;;;5012508;28;20054;-65
2023/08/11 10:18:43;;;;;;;4.85;3.35;;;27.50;99.90;;;;;;4996358;28;20046;-65
2023/08/11 10:21:13;;;;;;;5.90;3.65;;;27.60;99.90;;;;;;4996671;28;20124;-66
2023/08/11 10:23:41;;;;;;;6.47;4.00;;;27.60;99.90;;;;;;4997112;28;20050;-66
2023/08/11 10:26:09;;;;;;;6.68;4.45;;;27.80;99.90;;;;;;5012514;28;20053;-66
2023/08/11 10:28:36;;;;;;;6.25;4.05;;;27.90;99.90;;;;;;5012563;28;20065;-65
2023/08/11 10:31:11;;;;;;;6.38;3.92;;;28.00;99.90;;;;;;5013784;28;20049;-64
2023/08/11 10:33:39;;;;;;;5.32;3.97;;;28.10;99.90;;;;;;5012992;28;20068;-65
2023/08/11 10:36:05;;;;;;;6.00;3.80;;;27.90;99.90;;;;;;4994500;28;20108;-64
2023/08/11 10:38:33;;;;;;;5.55;3.60;;;28.00;99.90;;;;;;5013029;28;20053;-66
2023/08/11 10:41:10;;;;;;;5.85;4.03;;;27.90;99.90;;;;;;4996097;28;20058;-66
2023/08/11 10:43:41;;;;;;;6.72;4.07;;;27.90;99.90;;;;;;5007245;28;20046;-65
2023/08/11 10:46:30;;;;;;;5.82;4.30;;;28.00;99.90;;;;;;4993070;28;20085;-66
2023/08/11 10:49:08;;;;;;;6.20;4.10;;;28.00;99.90;;;;;;4977119;28;20059;-65
2023/08/11 10:51:37;;;;;;;7.10;3.92;;;27.90;99.90;;;;;;4973796;28;20094;-66
2023/08/11 10:54:09;;;;;;;6.53;4.15;;;28.00;99.90;;;;;;4956891;28;20050;-65
2023/08/11 10:56:44;;;;;;;8.13;4.03;;;28.20;99.90;;;;;;4987232;28;20046;-64
2023/08/11 10:59:25;;;;;;;6.95;3.92;;;28.30;99.90;;;;;;4993123;28;20050;-66
2023/08/11 11:01:54;;;;;;;6.43;3.75;;;28.30;99.90;;;;;;4994012;28;20339;-66
2023/08/11 11:04:22;;;;;;;8.15;3.85;;;28.40;99.90;;;;;;4993537;28;20061;-65
2023/08/11 11:06:53;;;;;;;4.97;4.07;;;28.30;99.90;;;;;;4992717;28;20058;-65
2023/08/11 11:09:20;;;;;;;5.95;3.88;;;28.10;99.90;;;;;;4976144;28;20061;-66
2023/08/11 11:11:47;;;;;;;5.78;4.32;;;28.20;99.90;;;;;;4976434;28;20054;-65
2023/08/11 11:14:22;;;;;;;7.28;4.40;;;28.30;99.90;;;;;;4976120;28;20051;-64
2023/08/11 11:16:49;;;;;;;6.80;4.53;;;28.30;99.90;;;;;;4959023;28;20448;-66
2023/08/11 11:19:16;;;;;;;7.57;4.57;;;28.20;99.90;;;;;;4974075;28;20050;-65
2023/08/11 11:21:42;;;;;;;7.53;4.60;;;28.40;99.90;;;;;;4993052;28;20053;-66
2023/08/11 11:24:10;;;;;;;6.18;4.25;;;28.50;99.90;;;;;;4992692;28;20058;-66
2023/08/11 11:26:36;;;;;;;7.35;4.47;;;28.50;99.90;;;;;;4973969;28;20050;-64
2023/08/11 11:29:05;;;;;;;7.35;4.13;;;28.50;99.90;;;;;;4992326;28;20054;-64
2023/08/11 11:31:33;;;;;;;7.68;4.30;;;28.30;99.90;;;;;;4991056;28;20066;-66
2023/08/11 11:34:01;;;;;;;6.00;4.20;;;28.60;99.90;;;;;;4959569;28;20050;-66
2023/08/11 11:36:31;;;;;;;5.85;4.38;;;28.80;99.90;;;;;;4991976;28;20455;-65
2023/08/11 11:38:59;;;;;;;5.93;4.10;;;28.80;99.90;;;;;;4991247;28;20121;-65
2023/08/11 11:41:27;;;;;;;6.15;4.40;;;28.80;99.90;;;;;;4958822;28;20051;-66
2023/08/11 11:43:53;;;;;;;6.45;4.22;;;28.80;99.90;;;;;;4974639;28;20105;-65
2023/08/11 11:46:30;;;;;;;4.97;3.83;;;28.90;99.90;;;;;;4975190;28;20054;-67
2023/08/11 11:48:57;;;;;;;;;;;28.80;99.90;;;;;;4992856;28;20125;-66
2023/08/11 11:51:25;;;;;;;6.78;4.22;;;28.70;99.90;;;;;;4975842;28;19925;-65
2023/08/11 11:53:55;;;;;;;5.07;3.67;;;28.70;99.90;;;;;;4974741;28;20068;-66
2023/08/11 11:56:22;;;;;;;6.93;4.50;;;28.70;99.90;;;;;;4991251;28;20057;-66
2023/08/11 11:58:51;;;;;;;4.88;3.83;;;28.80;99.90;;;;;;4991152;28;20050;-65
2023/08/11 12:01:20;;;;;;;6.82;3.92;;;29.00;99.90;;;;;;4974391;28;20486;-65
2023/08/11 12:03:49;;;;;;;7.22;4.43;;;29.00;99.90;;;;;;4991527;28;20121;-66
2023/08/11 12:06:20;;;;;;;6.20;4.07;;;29.10;99.90;;;;;;4974445;28;20042;-67
2023/08/11 12:08:51;;;;;;;6.88;4.45;;;29.00;99.90;;;;;;4974027;28;20058;-65
2023/08/11 12:11:24;;;;;;;6.38;4.30;;;29.00;99.90;;;;;;4958911;28;20068;-65
2023/08/11 12:13:51;;;;;;;4.85;3.70;;;28.90;99.90;;;;;;4958295;28;20046;-64
2023/08/11 12:16:21;;;;;;;6.32;4.55;;;28.90;99.90;;;;;;4973793;28;20054;-66
2023/08/11 12:18:47;;;;;;;6.20;4.10;;;28.90;99.90;;;;;;4958438;28;20058;-65
2023/08/11 12:21:16;;;;;;;6.20;4.10;;;28.80;99.90;;;;;;4974391;28;20089;-65
2023/08/11 12:23:49;;;;;;;6.13;3.90;;;29.00;99.90;;;;;;4992472;28;20065;-67
2023/08/11 12:26:15;;;;;;;7.50;4.30;;;29.10;99.90;;;;;;4991543;28;20479;-65
2023/08/11 12:28:41;;;;;;;9.25;4.35;;;29.10;99.90;;;;;;4991769;28;20089;-67
2023/08/11 12:31:08;;;;;;;6.20;4.05;;;29.30;99.90;;;;;;4991569;28;20057;-66
2023/08/11 12:33:38;;;;;;;5.25;4.50;;;29.30;99.90;;;;;;4974778;28;20046;-66
2023/08/11 12:36:04;;;;;;;7.72;4.10;;;29.40;99.90;;;;;;4990651;28;20137;-66
2023/08/11 12:38:33;;;;;;;5.38;4.00;;;29.50;99.90;;;;;;4990398;28;20077;-67
2023/08/11 12:40:59;;;;;;;5.90;4.20;;;29.60;99.90;;;;;;4991781;28;20050;-65
2023/08/11 12:43:25;;;;;;;4.82;3.97;;;29.70;99.90;;;;;;4994129;28;20064;-67
2023/08/11 12:45:54;;;;;;;5.30;4.18;;;29.80;99.90;;;;;;4977523;28;20382;-66